createdAt,value
2017-08-15T00:00:02.959Z,792.76
2017-08-15T00:00:07.076Z,792.77
2017-08-15T00:00:11.312Z,792.79
2017-08-15T00:00:15.444Z,792.75
2017-08-15T00:00:19.910Z,792.75
2017-08-15T00:00:24.358Z,792.78
2017-08-15T00:00:28.486Z,792.74
2017-08-15T00:00:32.937Z,792.77
2017-08-15T00:00:37.295Z,792.78
2017-08-15T00:00:41.741Z,792.76
2017-08-15T00:00:46.215Z,792.76
2017-08-15T00:00:50.576Z,792.76
2017-08-15T00:00:55.045Z,792.75
2017-08-15T00:00:59.511Z,792.74
2017-08-15T00:01:03.996Z,792.76
2017-08-15T00:01:08.334Z,792.78
2017-08-15T00:01:12.800Z,792.77
2017-08-15T00:01:17.262Z,792.69
2017-08-15T00:01:21.640Z,792.73
2017-08-15T00:01:26.007Z,792.72
2017-08-15T00:01:30.473Z,792.77
2017-08-15T00:01:34.809Z,792.73
2017-08-15T00:01:39.149Z,792.7
2017-08-15T00:01:43.619Z,792.74
2017-08-15T00:01:48.076Z,792.72
2017-08-15T00:01:52.324Z,792.75
2017-08-15T00:01:56.655Z,792.73
2017-08-15T00:02:01.119Z,792.71
2017-08-15T00:02:05.663Z,792.7
2017-08-15T00:02:10.168Z,792.7
2017-08-15T00:02:14.649Z,792.72
2017-08-15T00:02:19.109Z,792.73
2017-08-15T00:02:23.463Z,792.74
2017-08-15T00:02:27.948Z,792.62
2017-08-15T00:02:32.290Z,792.68
2017-08-15T00:02:36.638Z,792.7
2017-08-15T00:02:40.859Z,792.67
2017-08-15T00:02:45.190Z,792.73
2017-08-15T00:02:49.661Z,792.68
2017-08-15T00:02:53.895Z,792.65
2017-08-15T00:02:58.244Z,792.72
2017-08-15T00:03:02.735Z,792.67
2017-08-15T00:03:07.192Z,792.65
2017-08-15T00:03:11.525Z,792.68
2017-08-15T00:03:15.988Z,792.67
2017-08-15T00:03:20.446Z,792.69
2017-08-15T00:03:24.660Z,792.66
2017-08-15T00:03:28.891Z,792.64
2017-08-15T00:03:33.127Z,792.65
2017-08-15T00:03:37.608Z,792.66
2017-08-15T00:03:42.072Z,792.66
2017-08-15T00:03:46.420Z,792.63
2017-08-15T00:03:50.895Z,792.56
2017-08-15T00:03:55.377Z,792.62
2017-08-15T00:03:59.837Z,792.66
2017-08-15T00:04:04.287Z,792.6
2017-08-15T00:04:08.761Z,792.62
2017-08-15T00:04:13.229Z,792.61
2017-08-15T00:04:17.699Z,792.63
2017-08-15T00:04:21.930Z,792.61
2017-08-15T00:04:26.290Z,792.63
2017-08-15T00:04:30.747Z,792.6
2017-08-15T00:04:35.083Z,792.58
2017-08-15T00:04:39.564Z,792.59
2017-08-15T00:04:44.029Z,792.56
2017-08-15T00:04:48.266Z,792.57
2017-08-15T00:04:52.501Z,792.57
2017-08-15T00:04:56.969Z,792.58
2017-08-15T00:05:01.209Z,792.58
2017-08-15T00:05:05.802Z,792.55
2017-08-15T00:05:10.267Z,792.5
2017-08-15T00:05:14.613Z,792.53
2017-08-15T00:05:18.959Z,792.55
2017-08-15T00:05:23.305Z,792.55
2017-08-15T00:05:27.429Z,792.48
2017-08-15T00:05:31.774Z,792.52
2017-08-15T00:05:36.128Z,792.5
2017-08-15T00:05:40.610Z,792.5
2017-08-15T00:05:45.065Z,792.53
2017-08-15T00:05:49.302Z,792.47
2017-08-15T00:05:53.520Z,792.47
2017-08-15T00:05:57.974Z,792.49
2017-08-15T00:06:02.339Z,792.47
2017-08-15T00:06:06.574Z,792.47
2017-08-15T00:06:11.031Z,792.45
2017-08-15T00:06:15.376Z,792.43
2017-08-15T00:06:19.868Z,792.43
2017-08-15T00:06:24.340Z,792.42
2017-08-15T00:06:28.793Z,792.43
2017-08-15T00:06:33.129Z,792.42
2017-08-15T00:06:37.618Z,792.42
2017-08-15T00:06:42.093Z,792.41
2017-08-15T00:06:46.564Z,792.41
2017-08-15T00:06:51.032Z,792.41
2017-08-15T00:06:55.362Z,792.39
2017-08-15T00:06:59.711Z,792.37
2017-08-15T00:07:04.317Z,792.35
2017-08-15T00:07:08.795Z,792.35
2017-08-15T00:07:13.030Z,792.33
2017-08-15T00:07:17.485Z,792.34
2017-08-15T00:07:21.820Z,792.34
2017-08-15T00:07:26.287Z,792.33
2017-08-15T00:07:30.513Z,792.34
2017-08-15T00:07:34.980Z,792.33
2017-08-15T00:07:39.323Z,792.32
2017-08-15T00:07:43.784Z,792.28
2017-08-15T00:07:48.257Z,792.26
2017-08-15T00:07:52.484Z,792.25
2017-08-15T00:07:56.822Z,792.3
2017-08-15T00:08:01.284Z,792.28
2017-08-15T00:08:05.745Z,792.26
2017-08-15T00:08:10.083Z,792.25
2017-08-15T00:08:14.428Z,792.26
2017-08-15T00:08:18.785Z,792.23
2017-08-15T00:08:23.136Z,792.23
2017-08-15T00:08:27.585Z,792.23
2017-08-15T00:08:31.818Z,792.21
2017-08-15T00:08:36.276Z,792.18
2017-08-15T00:08:40.728Z,792.17
2017-08-15T00:08:45.188Z,792.18
2017-08-15T00:08:49.660Z,792.19
2017-08-15T00:08:54.025Z,792.14
2017-08-15T00:08:58.239Z,792.16
2017-08-15T00:09:02.995Z,792.12
2017-08-15T00:09:07.339Z,792.1
2017-08-15T00:09:11.562Z,792.11
2017-08-15T00:09:15.896Z,792.12
2017-08-15T00:09:20.355Z,792.09
2017-08-15T00:09:24.824Z,792.08
2017-08-15T00:09:29.196Z,792.06
2017-08-15T00:09:33.402Z,792.05
2017-08-15T00:09:37.740Z,792.06
2017-08-15T00:09:42.197Z,792.06
2017-08-15T00:09:46.663Z,792
2017-08-15T00:09:51.130Z,792.01
2017-08-15T00:09:55.364Z,791.99
2017-08-15T00:09:59.820Z,792.01
2017-08-15T00:10:04.187Z,791.98
2017-08-15T00:10:08.549Z,791.99
2017-08-15T00:10:12.893Z,791.98
2017-08-15T00:10:17.229Z,791.93
2017-08-15T00:10:21.451Z,791.91
2017-08-15T00:10:25.912Z,791.94
2017-08-15T00:10:30.264Z,791.96
2017-08-15T00:10:34.621Z,791.93
2017-08-15T00:10:39.077Z,791.91
2017-08-15T00:10:43.553Z,791.88
2017-08-15T00:10:48.012Z,791.91
2017-08-15T00:10:52.500Z,791.85
2017-08-15T00:10:56.833Z,791.82
2017-08-15T00:11:01.296Z,791.85
2017-08-15T00:11:05.764Z,791.87
2017-08-15T00:11:10.250Z,791.81
2017-08-15T00:11:14.715Z,791.83
2017-08-15T00:11:19.061Z,791.83
2017-08-15T00:11:23.298Z,791.84
2017-08-15T00:11:27.531Z,791.82
2017-08-15T00:11:31.642Z,791.78
2017-08-15T00:11:35.993Z,791.8
2017-08-15T00:11:40.473Z,791.79
2017-08-15T00:11:44.929Z,791.73
2017-08-15T00:11:49.281Z,791.75
2017-08-15T00:11:53.650Z,791.75
2017-08-15T00:11:58.006Z,791.73
2017-08-15T00:12:02.353Z,791.69
2017-08-15T00:12:06.816Z,791.69
2017-08-15T00:12:11.289Z,791.68
2017-08-15T00:12:15.776Z,791.65
2017-08-15T00:12:20.008Z,791.68
2017-08-15T00:12:24.462Z,791.64
2017-08-15T00:12:28.922Z,791.65
2017-08-15T00:12:33.157Z,791.58
2017-08-15T00:12:37.623Z,791.6
2017-08-15T00:12:41.972Z,791.61
2017-08-15T00:12:46.446Z,791.59
2017-08-15T00:12:50.908Z,791.59
2017-08-15T00:12:55.259Z,791.53
2017-08-15T00:12:59.723Z,791.55
2017-08-15T00:13:04.178Z,791.53
2017-08-15T00:13:08.650Z,791.57
2017-08-15T00:13:13.013Z,791.53
2017-08-15T00:13:17.350Z,791.52
2017-08-15T00:13:21.573Z,791.49
2017-08-15T00:13:25.926Z,791.51
2017-08-15T00:13:30.271Z,791.49
2017-08-15T00:13:34.502Z,791.47
2017-08-15T00:13:38.994Z,791.44
2017-08-15T00:13:43.356Z,791.46
2017-08-15T00:13:47.682Z,791.43
2017-08-15T00:13:52.013Z,791.41
2017-08-15T00:13:56.356Z,791.43
2017-08-15T00:14:00.569Z,791.4
2017-08-15T00:14:05.158Z,791.38
2017-08-15T00:14:09.609Z,791.38
2017-08-15T00:14:13.969Z,791.4
2017-08-15T00:14:18.321Z,791.39
2017-08-15T00:14:22.542Z,791.36
2017-08-15T00:14:26.769Z,791.37
2017-08-15T00:14:31.001Z,791.36
2017-08-15T00:14:35.339Z,791.35
2017-08-15T00:14:39.683Z,791.33
2017-08-15T00:14:44.047Z,791.32
2017-08-15T00:14:48.290Z,791.32
2017-08-15T00:14:52.506Z,791.31
2017-08-15T00:14:56.735Z,791.29
2017-08-15T00:15:01.105Z,791.3
2017-08-15T00:15:05.615Z,791.27
2017-08-15T00:15:09.961Z,791.3
2017-08-15T00:15:14.431Z,791.23
2017-08-15T00:15:18.893Z,791.27
2017-08-15T00:15:23.242Z,791.26
2017-08-15T00:15:27.589Z,791.26
2017-08-15T00:15:32.056Z,791.24
2017-08-15T00:15:36.409Z,791.23
2017-08-15T00:15:40.758Z,791.25
2017-08-15T00:15:45.119Z,791.25
2017-08-15T00:15:49.589Z,791.2
2017-08-15T00:15:53.812Z,791.24
2017-08-15T00:15:58.278Z,791.21
2017-08-15T00:16:02.749Z,791.18
2017-08-15T00:16:07.229Z,791.16
2017-08-15T00:16:11.561Z,791.13
2017-08-15T00:16:15.784Z,791.13
2017-08-15T00:16:20.132Z,791.18
2017-08-15T00:16:24.604Z,791.15
2017-08-15T00:16:28.949Z,791.17
2017-08-15T00:16:33.159Z,791.17
2017-08-15T00:16:37.379Z,791.16
2017-08-15T00:16:41.853Z,791.14
2017-08-15T00:16:46.190Z,791.15
2017-08-15T00:16:50.542Z,791.1
2017-08-15T00:16:54.999Z,791.15
2017-08-15T00:16:59.335Z,791.13
2017-08-15T00:17:03.791Z,791.11
2017-08-15T00:17:08.265Z,791.09
2017-08-15T00:17:12.610Z,791.12
2017-08-15T00:17:17.073Z,791.12
2017-08-15T00:17:21.425Z,791.13
2017-08-15T00:17:25.645Z,791.13
2017-08-15T00:17:30.004Z,791.09
2017-08-15T00:17:34.479Z,791.09
2017-08-15T00:17:38.941Z,791.06
2017-08-15T00:17:43.397Z,791.11
2017-08-15T00:17:47.729Z,791.06
2017-08-15T00:17:52.072Z,791.03
2017-08-15T00:17:56.414Z,791.1
2017-08-15T00:18:00.877Z,791.08
2017-08-15T00:18:05.555Z,791.06
2017-08-15T00:18:09.779Z,791.05
2017-08-15T00:18:14.132Z,791.01
2017-08-15T00:18:18.601Z,791.05
2017-08-15T00:18:22.962Z,791.09
2017-08-15T00:18:27.180Z,791.05
2017-08-15T00:18:31.635Z,791.07
2017-08-15T00:18:36.096Z,791.05
2017-08-15T00:18:40.462Z,791.09
2017-08-15T00:18:44.789Z,791.04
2017-08-15T00:18:49.005Z,791.05
2017-08-15T00:18:53.351Z,791.03
2017-08-15T00:18:57.711Z,791.03
2017-08-15T00:19:01.930Z,791.04
2017-08-15T00:19:06.388Z,791.06
2017-08-15T00:19:10.855Z,791.06
2017-08-15T00:19:15.079Z,791.02
2017-08-15T00:19:19.530Z,791.04
2017-08-15T00:19:23.874Z,791.03
2017-08-15T00:19:28.235Z,791.03
2017-08-15T00:19:32.718Z,790.99
2017-08-15T00:19:37.176Z,791.03
2017-08-15T00:19:41.638Z,791
2017-08-15T00:19:46.121Z,791.03
2017-08-15T00:19:50.475Z,791.04
2017-08-15T00:19:54.691Z,791.03
2017-08-15T00:19:59.037Z,791.02
2017-08-15T00:20:03.541Z,791.01
2017-08-15T00:20:07.953Z,791.03
2017-08-15T00:20:12.296Z,791.02
2017-08-15T00:20:16.766Z,791
2017-08-15T00:20:21.210Z,790.98
2017-08-15T00:20:25.551Z,791
2017-08-15T00:20:29.653Z,791
2017-08-15T00:20:34.004Z,791.01
2017-08-15T00:20:38.351Z,790.97
2017-08-15T00:20:42.827Z,790.96
2017-08-15T00:20:47.183Z,790.99
2017-08-15T00:20:51.658Z,790.97
2017-08-15T00:20:55.990Z,790.98
2017-08-15T00:21:00.451Z,790.95
2017-08-15T00:21:04.931Z,790.98
2017-08-15T00:21:09.394Z,790.94
2017-08-15T00:21:13.610Z,790.95
2017-08-15T00:21:18.068Z,790.97
2017-08-15T00:21:22.555Z,790.93
2017-08-15T00:21:26.914Z,790.94
2017-08-15T00:21:31.375Z,790.91
2017-08-15T00:21:35.737Z,790.91
2017-08-15T00:21:40.213Z,790.9
2017-08-15T00:21:44.678Z,790.94
2017-08-15T00:21:49.017Z,790.93
2017-08-15T00:21:53.466Z,790.91
2017-08-15T00:21:57.692Z,790.93
2017-08-15T00:22:02.178Z,790.87
2017-08-15T00:22:06.535Z,790.89
2017-08-15T00:22:10.752Z,790.92
2017-08-15T00:22:14.874Z,790.92
2017-08-15T00:22:19.332Z,790.91
2017-08-15T00:22:23.666Z,790.89
2017-08-15T00:22:27.890Z,790.89
2017-08-15T00:22:32.380Z,790.93
2017-08-15T00:22:36.836Z,790.92
2017-08-15T00:22:41.295Z,790.89
2017-08-15T00:22:45.668Z,790.89
2017-08-15T00:22:50.005Z,790.9
2017-08-15T00:22:54.355Z,790.87
2017-08-15T00:22:58.718Z,790.87
2017-08-15T00:23:03.194Z,790.85
2017-08-15T00:23:07.570Z,790.79
2017-08-15T00:23:11.915Z,790.8
2017-08-15T00:23:16.261Z,790.82
2017-08-15T00:23:20.719Z,790.85
2017-08-15T00:23:25.081Z,790.83
2017-08-15T00:23:29.195Z,790.83
2017-08-15T00:23:33.647Z,790.83
2017-08-15T00:23:38.103Z,790.86
2017-08-15T00:23:42.558Z,790.83
2017-08-15T00:23:46.756Z,790.82
2017-08-15T00:23:51.093Z,790.79
2017-08-15T00:23:55.331Z,790.81
2017-08-15T00:23:59.826Z,790.81
2017-08-15T00:24:04.284Z,790.81
2017-08-15T00:24:08.741Z,790.8
2017-08-15T00:24:13.189Z,790.8
2017-08-15T00:24:17.539Z,790.73
2017-08-15T00:24:21.866Z,790.73
2017-08-15T00:24:26.199Z,790.76
2017-08-15T00:24:30.316Z,790.8
2017-08-15T00:24:34.548Z,790.78
2017-08-15T00:24:38.998Z,790.76
2017-08-15T00:24:43.457Z,790.76
2017-08-15T00:24:47.820Z,790.73
2017-08-15T00:24:52.036Z,790.78
2017-08-15T00:24:56.376Z,790.78
2017-08-15T00:25:00.836Z,790.74
2017-08-15T00:25:05.420Z,790.77
2017-08-15T00:25:09.879Z,790.76
2017-08-15T00:25:14.340Z,790.75
2017-08-15T00:25:18.806Z,790.77
2017-08-15T00:25:23.144Z,790.77
2017-08-15T00:25:27.584Z,790.77
2017-08-15T00:25:31.916Z,790.74
2017-08-15T00:25:36.147Z,790.71
2017-08-15T00:25:40.632Z,790.69
2017-08-15T00:25:45.085Z,790.7
2017-08-15T00:25:49.545Z,790.69
2017-08-15T00:25:54.004Z,790.71
2017-08-15T00:25:58.468Z,790.73
2017-08-15T00:26:03.222Z,790.73
2017-08-15T00:26:07.568Z,790.72
2017-08-15T00:26:12.029Z,790.72
2017-08-15T00:26:16.275Z,790.7
2017-08-15T00:26:20.728Z,790.67
2017-08-15T00:26:25.063Z,790.7
2017-08-15T00:26:29.412Z,790.7
2017-08-15T00:26:33.524Z,790.71
2017-08-15T00:26:37.738Z,790.68
2017-08-15T00:26:42.196Z,790.68
2017-08-15T00:26:46.559Z,790.68
2017-08-15T00:26:51.016Z,790.69
2017-08-15T00:26:55.239Z,790.67
2017-08-15T00:26:59.707Z,790.68
2017-08-15T00:27:04.482Z,790.66
2017-08-15T00:27:08.953Z,790.67
2017-08-15T00:27:13.289Z,790.66
2017-08-15T00:27:17.754Z,790.66
2017-08-15T00:27:22.216Z,790.65
2017-08-15T00:27:26.329Z,790.67
2017-08-15T00:27:30.671Z,790.62
2017-08-15T00:27:35.024Z,790.66
2017-08-15T00:27:39.373Z,790.66
2017-08-15T00:27:43.841Z,790.64
2017-08-15T00:27:48.193Z,790.66
2017-08-15T00:27:52.433Z,790.64
2017-08-15T00:27:56.805Z,790.63
2017-08-15T00:28:01.261Z,790.63
2017-08-15T00:28:05.595Z,790.57
2017-08-15T00:28:09.830Z,790.61
2017-08-15T00:28:14.178Z,790.58
2017-08-15T00:28:18.621Z,790.59
2017-08-15T00:28:22.835Z,790.64
2017-08-15T00:28:27.080Z,790.6
2017-08-15T00:28:31.542Z,790.62
2017-08-15T00:28:36.004Z,790.64
2017-08-15T00:28:40.468Z,790.56
2017-08-15T00:28:44.956Z,790.55
2017-08-15T00:28:49.301Z,790.58
2017-08-15T00:28:53.400Z,790.56
2017-08-15T00:28:57.622Z,790.57
2017-08-15T00:29:02.296Z,790.58
2017-08-15T00:29:06.646Z,790.58
2017-08-15T00:29:11.112Z,790.54
2017-08-15T00:29:15.465Z,790.56
2017-08-15T00:29:19.952Z,790.55
2017-08-15T00:29:24.418Z,790.55
2017-08-15T00:29:28.765Z,790.54
2017-08-15T00:29:33.105Z,790.59
2017-08-15T00:29:37.573Z,790.55
2017-08-15T00:29:42.041Z,790.53
2017-08-15T00:29:46.379Z,790.51
2017-08-15T00:29:50.717Z,790.51
2017-08-15T00:29:55.060Z,790.48
2017-08-15T00:29:59.504Z,790.53
2017-08-15T00:30:03.881Z,790.46
2017-08-15T00:30:08.152Z,790.49
2017-08-15T00:30:12.511Z,790.49
2017-08-15T00:30:16.853Z,790.5
2017-08-15T00:30:21.309Z,790.47
2017-08-15T00:30:25.768Z,790.49
2017-08-15T00:30:30.009Z,790.49
2017-08-15T00:30:34.108Z,790.49
2017-08-15T00:30:38.562Z,790.49
2017-08-15T00:30:43.015Z,790.5
2017-08-15T00:30:47.494Z,790.48
2017-08-15T00:30:51.948Z,790.49
2017-08-15T00:30:56.177Z,790.44
2017-08-15T00:31:00.529Z,790.5
2017-08-15T00:31:05.015Z,790.5
2017-08-15T00:31:09.482Z,790.45
2017-08-15T00:31:13.833Z,790.48
2017-08-15T00:31:18.189Z,790.48
2017-08-15T00:31:22.659Z,790.49
2017-08-15T00:31:26.884Z,790.46
2017-08-15T00:31:31.353Z,790.48
2017-08-15T00:31:35.707Z,790.48
2017-08-15T00:31:40.174Z,790.47
2017-08-15T00:31:44.633Z,790.47
2017-08-15T00:31:48.982Z,790.45
2017-08-15T00:31:52.970Z,790.38
2017-08-15T00:31:57.420Z,790.48
2017-08-15T00:32:01.866Z,790.48
2017-08-15T00:32:06.088Z,790.45
2017-08-15T00:32:10.307Z,790.48
2017-08-15T00:32:14.649Z,790.42
2017-08-15T00:32:19.123Z,790.45
2017-08-15T00:32:23.346Z,790.45
2017-08-15T00:32:27.566Z,790.44
2017-08-15T00:32:31.780Z,790.42
2017-08-15T00:32:36.109Z,790.43
2017-08-15T00:32:40.552Z,790.43
2017-08-15T00:32:45.011Z,790.44
2017-08-15T00:32:49.366Z,790.46
2017-08-15T00:32:53.482Z,790.45
2017-08-15T00:32:57.839Z,790.48
2017-08-15T00:33:02.323Z,790.38
2017-08-15T00:33:06.780Z,790.43
2017-08-15T00:33:11.257Z,790.42
2017-08-15T00:33:15.595Z,790.43
2017-08-15T00:33:19.938Z,790.43
2017-08-15T00:33:24.394Z,790.42
2017-08-15T00:33:28.719Z,790.43
2017-08-15T00:33:33.059Z,790.42
2017-08-15T00:33:37.396Z,790.42
2017-08-15T00:33:41.734Z,790.42
2017-08-15T00:33:45.844Z,790.4
2017-08-15T00:33:50.307Z,790.4
2017-08-15T00:33:54.419Z,790.41
2017-08-15T00:33:58.746Z,790.39
2017-08-15T00:34:03.360Z,790.42
2017-08-15T00:34:07.706Z,790.4
2017-08-15T00:34:12.185Z,790.38
2017-08-15T00:34:16.520Z,790.41
2017-08-15T00:34:20.993Z,790.41
2017-08-15T00:34:25.593Z,790.38
2017-08-15T00:34:30.051Z,790.4
2017-08-15T00:34:34.262Z,790.44
2017-08-15T00:34:38.610Z,790.42
2017-08-15T00:34:43.095Z,790.39
2017-08-15T00:34:47.566Z,790.38
2017-08-15T00:34:52.023Z,790.38
2017-08-15T00:34:56.146Z,790.41
2017-08-15T00:35:00.602Z,790.32
2017-08-15T00:35:04.953Z,790.35
2017-08-15T00:35:09.300Z,790.38
2017-08-15T00:35:13.640Z,790.38
2017-08-15T00:35:18.101Z,790.38
2017-08-15T00:35:22.193Z,790.36
2017-08-15T00:35:26.543Z,790.38
2017-08-15T00:35:30.897Z,790.35
2017-08-15T00:35:35.243Z,790.34
2017-08-15T00:35:39.589Z,790.34
2017-08-15T00:35:43.931Z,790.33
2017-08-15T00:35:48.396Z,790.32
2017-08-15T00:35:52.853Z,790.32
2017-08-15T00:35:56.962Z,790.38
2017-08-15T00:36:01.427Z,790.35
2017-08-15T00:36:05.910Z,790.31
2017-08-15T00:36:09.899Z,790.34
2017-08-15T00:36:14.251Z,790.3
2017-08-15T00:36:18.726Z,790.35
2017-08-15T00:36:23.193Z,790.25
2017-08-15T00:36:27.522Z,790.3
2017-08-15T00:36:31.986Z,790.29
2017-08-15T00:36:36.459Z,790.33
2017-08-15T00:36:40.922Z,790.29
2017-08-15T00:36:45.381Z,790.29
2017-08-15T00:36:49.730Z,790.29
2017-08-15T00:36:54.190Z,790.3
2017-08-15T00:36:58.407Z,790.27
2017-08-15T00:37:02.873Z,790.24
2017-08-15T00:37:07.100Z,790.29
2017-08-15T00:37:11.334Z,790.25
2017-08-15T00:37:15.668Z,790.27
2017-08-15T00:37:20.122Z,790.21
2017-08-15T00:37:24.466Z,790.26
2017-08-15T00:37:28.946Z,790.19
2017-08-15T00:37:33.414Z,790.19
2017-08-15T00:37:37.861Z,790.24
2017-08-15T00:37:42.209Z,790.22
2017-08-15T00:37:46.309Z,790.2
2017-08-15T00:37:50.646Z,790.25
2017-08-15T00:37:54.880Z,790.22
2017-08-15T00:37:59.108Z,790.24
2017-08-15T00:38:03.664Z,790.15
2017-08-15T00:38:07.884Z,790.12
2017-08-15T00:38:12.238Z,790.21
2017-08-15T00:38:16.611Z,790.21
2017-08-15T00:38:21.072Z,790.2
2017-08-15T00:38:25.530Z,790.19
2017-08-15T00:38:29.876Z,790.22
2017-08-15T00:38:34.220Z,790.12
2017-08-15T00:38:38.708Z,790.22
2017-08-15T00:38:43.179Z,790.18
2017-08-15T00:38:47.518Z,790.18
2017-08-15T00:38:51.850Z,790.15
2017-08-15T00:38:56.311Z,790.16
2017-08-15T00:39:00.771Z,790.11
2017-08-15T00:39:05.426Z,790.14
2017-08-15T00:39:09.894Z,790.15
2017-08-15T00:39:14.223Z,790.13
2017-08-15T00:39:18.683Z,790.14
2017-08-15T00:39:22.908Z,790.19
2017-08-15T00:39:27.029Z,790.14
2017-08-15T00:39:31.262Z,790.1
2017-08-15T00:39:35.720Z,790.11
2017-08-15T00:39:40.092Z,790.1
2017-08-15T00:39:44.430Z,790.08
2017-08-15T00:39:48.779Z,790.12
2017-08-15T00:39:53.014Z,790.11
2017-08-15T00:39:57.466Z,790.1
2017-08-15T00:40:02.098Z,790.08
2017-08-15T00:40:06.441Z,790.05
2017-08-15T00:40:10.564Z,790.05
2017-08-15T00:40:14.933Z,790.05
2017-08-15T00:40:19.384Z,790.06
2017-08-15T00:40:23.724Z,790.05
2017-08-15T00:40:28.046Z,790.05
2017-08-15T00:40:32.392Z,790.03
2017-08-15T00:40:36.852Z,790.04
2017-08-15T00:40:41.309Z,790.04
2017-08-15T00:40:45.767Z,790.05
2017-08-15T00:40:50.106Z,790.04
2017-08-15T00:40:54.575Z,790.02
2017-08-15T00:40:59.045Z,790.04
2017-08-15T00:41:03.414Z,789.97
2017-08-15T00:41:07.861Z,790.01
2017-08-15T00:41:12.204Z,790.02
2017-08-15T00:41:16.695Z,790.01
2017-08-15T00:41:21.036Z,789.97
2017-08-15T00:41:25.491Z,790
2017-08-15T00:41:29.739Z,789.98
2017-08-15T00:41:34.217Z,789.96
2017-08-15T00:41:38.673Z,789.94
2017-08-15T00:41:43.126Z,789.96
2017-08-15T00:41:47.608Z,789.92
2017-08-15T00:41:51.708Z,789.94
2017-08-15T00:41:55.932Z,789.93
2017-08-15T00:42:00.396Z,789.94
2017-08-15T00:42:04.848Z,789.92
2017-08-15T00:42:09.209Z,789.93
2017-08-15T00:42:13.673Z,789.91
2017-08-15T00:42:18.130Z,789.92
2017-08-15T00:42:22.592Z,789.83
2017-08-15T00:42:26.816Z,789.86
2017-08-15T00:42:31.266Z,789.88
2017-08-15T00:42:35.732Z,789.83
2017-08-15T00:42:39.969Z,789.87
2017-08-15T00:42:44.315Z,789.87
2017-08-15T00:42:48.662Z,789.85
2017-08-15T00:42:53.124Z,789.86
2017-08-15T00:42:57.599Z,789.84
2017-08-15T00:43:02.055Z,789.85
2017-08-15T00:43:06.514Z,789.84
2017-08-15T00:43:10.977Z,789.82
2017-08-15T00:43:15.463Z,789.81
2017-08-15T00:43:19.705Z,789.82
2017-08-15T00:43:23.927Z,789.83
2017-08-15T00:43:28.398Z,789.81
2017-08-15T00:43:32.640Z,789.78
2017-08-15T00:43:37.090Z,789.78
2017-08-15T00:43:41.435Z,789.74
2017-08-15T00:43:45.890Z,789.75
2017-08-15T00:43:50.232Z,789.77
2017-08-15T00:43:54.584Z,789.76
2017-08-15T00:43:59.062Z,789.77
2017-08-15T00:44:03.649Z,789.74
2017-08-15T00:44:07.747Z,789.73
2017-08-15T00:44:12.207Z,789.77
2017-08-15T00:44:16.556Z,789.75
2017-08-15T00:44:21.019Z,789.74
2017-08-15T00:44:25.398Z,789.73
2017-08-15T00:44:29.757Z,789.73
2017-08-15T00:44:34.237Z,789.7
2017-08-15T00:44:38.694Z,789.74
2017-08-15T00:44:43.175Z,789.72
2017-08-15T00:44:47.628Z,789.72
2017-08-15T00:44:51.977Z,789.73
2017-08-15T00:44:56.457Z,789.72
2017-08-15T00:45:00.911Z,789.71
2017-08-15T00:45:05.473Z,789.69
2017-08-15T00:45:09.949Z,789.73
2017-08-15T00:45:14.184Z,789.69
2017-08-15T00:45:18.647Z,789.69
2017-08-15T00:45:22.994Z,789.7
2017-08-15T00:45:27.343Z,789.66
2017-08-15T00:45:31.683Z,789.7
2017-08-15T00:45:36.140Z,789.66
2017-08-15T00:45:40.595Z,789.7
2017-08-15T00:45:45.061Z,789.71
2017-08-15T00:45:49.154Z,789.64
2017-08-15T00:45:53.253Z,789.67
2017-08-15T00:45:57.708Z,789.69
2017-08-15T00:46:02.180Z,789.69
2017-08-15T00:46:06.642Z,789.64
2017-08-15T00:46:11.099Z,789.68
2017-08-15T00:46:15.316Z,789.68
2017-08-15T00:46:19.552Z,789.63
2017-08-15T00:46:23.772Z,789.64
2017-08-15T00:46:28.227Z,789.66
2017-08-15T00:46:32.583Z,789.65
2017-08-15T00:46:37.062Z,789.61
2017-08-15T00:46:41.510Z,789.62
2017-08-15T00:46:45.866Z,789.65
2017-08-15T00:46:50.211Z,789.66
2017-08-15T00:46:54.316Z,789.6
2017-08-15T00:46:58.785Z,789.65
2017-08-15T00:47:03.460Z,789.68
2017-08-15T00:47:07.713Z,789.64
2017-08-15T00:47:12.175Z,789.66
2017-08-15T00:47:16.627Z,789.61
2017-08-15T00:47:21.102Z,789.63
2017-08-15T00:47:25.573Z,789.65
2017-08-15T00:47:29.691Z,789.64
2017-08-15T00:47:33.914Z,789.65
2017-08-15T00:47:38.377Z,789.64
2017-08-15T00:47:42.839Z,789.63
2017-08-15T00:47:47.197Z,789.61
2017-08-15T00:47:51.286Z,789.64
2017-08-15T00:47:55.390Z,789.66
2017-08-15T00:47:59.849Z,789.62
2017-08-15T00:48:04.483Z,789.65
2017-08-15T00:48:08.812Z,789.61
2017-08-15T00:48:13.278Z,789.66
2017-08-15T00:48:17.735Z,789.62
2017-08-15T00:48:22.078Z,789.61
2017-08-15T00:48:26.417Z,789.61
2017-08-15T00:48:30.771Z,789.64
2017-08-15T00:48:35.226Z,789.67
2017-08-15T00:48:39.695Z,789.65
2017-08-15T00:48:44.165Z,789.64
2017-08-15T00:48:48.527Z,789.62
2017-08-15T00:48:52.642Z,789.61
2017-08-15T00:48:57.105Z,789.64
2017-08-15T00:49:01.554Z,789.66
2017-08-15T00:49:06.006Z,789.57
2017-08-15T00:49:10.354Z,789.62
2017-08-15T00:49:14.812Z,789.6
2017-08-15T00:49:19.275Z,789.64
2017-08-15T00:49:23.727Z,789.56
2017-08-15T00:49:27.948Z,789.58
2017-08-15T00:49:32.289Z,789.61
2017-08-15T00:49:36.757Z,789.63
2017-08-15T00:49:41.229Z,789.61
2017-08-15T00:49:45.669Z,789.58
2017-08-15T00:49:49.774Z,789.58
2017-08-15T00:49:54.258Z,789.61
2017-08-15T00:49:58.501Z,789.58
2017-08-15T00:50:02.852Z,789.56
2017-08-15T00:50:07.185Z,789.53
2017-08-15T00:50:11.406Z,789.58
2017-08-15T00:50:15.619Z,789.56
2017-08-15T00:50:20.069Z,789.55
2017-08-15T00:50:24.418Z,789.55
2017-08-15T00:50:28.887Z,789.53
2017-08-15T00:50:33.352Z,789.55
2017-08-15T00:50:37.684Z,789.52
2017-08-15T00:50:42.142Z,789.51
2017-08-15T00:50:46.252Z,789.56
2017-08-15T00:50:50.585Z,789.53
2017-08-15T00:50:54.820Z,789.51
2017-08-15T00:50:59.294Z,789.51
2017-08-15T00:51:03.777Z,789.51
2017-08-15T00:51:08.258Z,789.52
2017-08-15T00:51:12.716Z,789.54
2017-08-15T00:51:17.173Z,789.53
2017-08-15T00:51:21.628Z,789.52
2017-08-15T00:51:25.970Z,789.49
2017-08-15T00:51:30.432Z,789.49
2017-08-15T00:51:34.773Z,789.49
2017-08-15T00:51:39.237Z,789.5
2017-08-15T00:51:43.680Z,789.48
2017-08-15T00:51:47.915Z,789.46
2017-08-15T00:51:52.155Z,789.47
2017-08-15T00:51:56.547Z,789.47
2017-08-15T00:52:01.012Z,789.45
2017-08-15T00:52:05.638Z,789.44
2017-08-15T00:52:10.095Z,789.43
2017-08-15T00:52:14.446Z,789.43
2017-08-15T00:52:18.890Z,789.43
2017-08-15T00:52:23.362Z,789.45
2017-08-15T00:52:27.745Z,789.44
2017-08-15T00:52:32.080Z,789.42
2017-08-15T00:52:36.552Z,789.4
2017-08-15T00:52:40.903Z,789.43
2017-08-15T00:52:45.357Z,789.37
2017-08-15T00:52:49.690Z,789.43
2017-08-15T00:52:53.919Z,789.39
2017-08-15T00:52:58.265Z,789.39
2017-08-15T00:53:02.969Z,789.33
2017-08-15T00:53:07.317Z,789.35
2017-08-15T00:53:11.670Z,789.34
2017-08-15T00:53:15.888Z,789.37
2017-08-15T00:53:20.238Z,789.35
2017-08-15T00:53:24.595Z,789.34
2017-08-15T00:53:29.074Z,789.33
2017-08-15T00:53:33.547Z,789.31
2017-08-15T00:53:38.008Z,789.34
2017-08-15T00:53:42.470Z,789.32
2017-08-15T00:53:46.933Z,789.3
2017-08-15T00:53:51.171Z,789.33
2017-08-15T00:53:55.289Z,789.31
2017-08-15T00:53:59.515Z,789.3
2017-08-15T00:54:04.229Z,789.31
2017-08-15T00:54:08.677Z,789.25
2017-08-15T00:54:12.787Z,789.29
2017-08-15T00:54:17.125Z,789.27
2017-08-15T00:54:21.603Z,789.28
2017-08-15T00:54:26.054Z,789.26
2017-08-15T00:54:30.507Z,789.23
2017-08-15T00:54:34.946Z,789.26
2017-08-15T00:54:39.400Z,789.25
2017-08-15T00:54:43.738Z,789.26
2017-08-15T00:54:48.086Z,789.27